sensor_id;sensor_type;location;lat;lon;timestamp;temperature;humidity
7472;DHT22;3777;48.722;8.110;2022-11-04T00:01:43;12.70;99.90
7472;DHT22;3777;48.722;8.110;2022-11-04T00:04:13;12.70;99.90
7472;DHT22;3777;48.722;8.110;2022-11-04T00:06:41;12.70;99.90
7472;DHT22;3777;48.722;8.110;2022-11-04T00:09:10;12.70;99.90
7472;DHT22;3777;48.722;8.110;2022-11-04T00:11:37;12.70;99.90
7472;DHT22;3777;48.722;8.110;2022-11-04T00:14:22;12.70;99.90
7472;DHT22;3777;48.722;8.110;2022-11-04T00:16:49;12.70;99.90
7472;DHT22;3777;48.722;8.110;2022-11-04T00:19:35;12.60;99.90
7472;DHT22;3777;48.722;8.110;2022-11-04T00:22:16;12.60;99.90
7472;DHT22;3777;48.722;8.110;2022-11-04T00:25:00;12.50;99.90
7472;DHT22;3777;48.722;8.110;2022-11-04T00:27:44;12.50;99.90
7472;DHT22;3777;48.722;8.110;2022-11-04T00:30:31;12.40;99.90
7472;DHT22;3777;48.722;8.110;2022-11-04T00:32:58;12.20;99.90
7472;DHT22;3777;48.722;8.110;2022-11-04T00:35:48;12.00;99.90
7472;DHT22;3777;48.722;8.110;2022-11-04T00:38:15;11.90;99.90
7472;DHT22;3777;48.722;8.110;2022-11-04T00:40:42;11.80;99.90
7472;DHT22;3777;48.722;8.110;2022-11-04T00:43:09;11.80;99.90
7472;DHT22;3777;48.722;8.110;2022-11-04T00:45:37;11.70;99.90
7472;DHT22;3777;48.722;8.110;2022-11-04T00:48:05;11.70;99.90
7472;DHT22;3777;48.722;8.110;2022-11-04T00:50:32;11.70;99.90
7472;DHT22;3777;48.722;8.110;2022-11-04T00:53:01;11.80;99.90
7472;DHT22;3777;48.722;8.110;2022-11-04T00:55:29;11.80;99.90
7472;DHT22;3777;48.722;8.110;2022-11-04T00:57:57;11.80;99.90
7472;DHT22;3777;48.722;8.110;2022-11-04T01:00:24;11.90;99.90
7472;DHT22;3777;48.722;8.110;2022-11-04T01:02:51;11.90;99.90
7472;DHT22;3777;48.722;8.110;2022-11-04T01:05:18;11.90;99.90
7472;DHT22;3777;48.722;8.110;2022-11-04T01:07:45;11.80;99.90
7472;DHT22;3777;48.722;8.110;2022-11-04T01:10:13;11.80;99.90
7472;DHT22;3777;48.722;8.110;2022-11-04T01:12:40;11.90;99.90
7472;DHT22;3777;48.722;8.110;2022-11-04T01:15:08;12.00;99.90
7472;DHT22;3777;48.722;8.110;2022-11-04T01:17:35;12.00;99.90
7472;DHT22;3777;48.722;8.110;2022-11-04T01:20:03;12.10;99.90
7472;DHT22;3777;48.722;8.110;2022-11-04T01:22:29;12.00;99.90
7472;DHT22;3777;48.722;8.110;2022-11-04T01:24:56;12.00;99.90
7472;DHT22;3777;48.722;8.110;2022-11-04T01:27:25;11.90;99.90
7472;DHT22;3777;48.722;8.110;2022-11-04T01:29:52;11.90;99.90
7472;DHT22;3777;48.722;8.110;2022-11-04T01:32:19;11.90;99.90
7472;DHT22;3777;48.722;8.110;2022-11-04T01:34:46;11.80;99.90
7472;DHT22;3777;48.722;8.110;2022-11-04T01:37:13;11.70;99.90
7472;DHT22;3777;48.722;8.110;2022-11-04T01:39:40;11.70;99.90
7472;DHT22;3777;48.722;8.110;2022-11-04T01:42:12;11.70;99.90
7472;DHT22;3777;48.722;8.110;2022-11-04T01:44:50;11.60;99.90
7472;DHT22;3777;48.722;8.110;2022-11-04T01:47:19;11.60;99.90
7472;DHT22;3777;48.722;8.110;2022-11-04T01:49:49;11.60;99.90
7472;DHT22;3777;48.722;8.110;2022-11-04T01:52:21;11.60;99.90
7472;DHT22;3777;48.722;8.110;2022-11-04T01:54:51;11.60;99.90
7472;DHT22;3777;48.722;8.110;2022-11-04T01:57:28;11.50;99.90
7472;DHT22;3777;48.722;8.110;2022-11-04T02:00:01;11.40;99.90
7472;DHT22;3777;48.722;8.110;2022-11-04T02:02:28;11.40;99.90
7472;DHT22;3777;48.722;8.110;2022-11-04T02:04:56;11.30;99.90
7472;DHT22;3777;48.722;8.110;2022-11-04T02:07:23;11.30;99.90
7472;DHT22;3777;48.722;8.110;2022-11-04T02:09:50;11.20;99.90
7472;DHT22;3777;48.722;8.110;2022-11-04T02:12:17;11.30;99.90
7472;DHT22;3777;48.722;8.110;2022-11-04T02:15:04;11.20;99.90
7472;DHT22;3777;48.722;8.110;2022-11-04T02:17:46;11.20;99.90
7472;DHT22;3777;48.722;8.110;2022-11-04T02:20:28;11.20;99.90
7472;DHT22;3777;48.722;8.110;2022-11-04T02:23:41;11.20;99.90
7472;DHT22;3777;48.722;8.110;2022-11-04T02:26:40;11.20;99.90
7472;DHT22;3777;48.722;8.110;2022-11-04T02:29:25;11.10;99.90
7472;DHT22;3777;48.722;8.110;2022-11-04T02:32:01;11.00;99.90
7472;DHT22;3777;48.722;8.110;2022-11-04T02:34:35;11.00;99.90
7472;DHT22;3777;48.722;8.110;2022-11-04T02:37:14;11.00;99.90
7472;DHT22;3777;48.722;8.110;2022-11-04T02:39:49;11.10;99.90
7472;DHT22;3777;48.722;8.110;2022-11-04T02:42:24;11.10;99.90
7472;DHT22;3777;48.722;8.110;2022-11-04T02:44:58;11.20;99.90
7472;DHT22;3777;48.722;8.110;2022-11-04T02:47:30;11.10;99.90
7472;DHT22;3777;48.722;8.110;2022-11-04T02:50:04;11.10;99.90
7472;DHT22;3777;48.722;8.110;2022-11-04T02:52:38;11.10;99.90
7472;DHT22;3777;48.722;8.110;2022-11-04T02:55:10;11.00;99.90
7472;DHT22;3777;48.722;8.110;2022-11-04T02:57:39;11.10;99.90
7472;DHT22;3777;48.722;8.110;2022-11-04T03:00:11;11.00;99.90
7472;DHT22;3777;48.722;8.110;2022-11-04T03:02:41;10.90;99.90
7472;DHT22;3777;48.722;8.110;2022-11-04T03:05:12;10.90;99.90
7472;DHT22;3777;48.722;8.110;2022-11-04T03:07:41;10.90;99.90
7472;DHT22;3777;48.722;8.110;2022-11-04T03:10:14;10.90;99.90
7472;DHT22;3777;48.722;8.110;2022-11-04T03:12:46;10.90;99.90
7472;DHT22;3777;48.722;8.110;2022-11-04T03:15:18;10.90;99.90
7472;DHT22;3777;48.722;8.110;2022-11-04T03:17:49;10.90;99.90
7472;DHT22;3777;48.722;8.110;2022-11-04T03:20:22;11.00;99.90
7472;DHT22;3777;48.722;8.110;2022-11-04T03:22:52;11.00;99.90
7472;DHT22;3777;48.722;8.110;2022-11-04T03:25:25;11.00;99.90
7472;DHT22;3777;48.722;8.110;2022-11-04T03:27:59;10.90;99.90
7472;DHT22;3777;48.722;8.110;2022-11-04T03:30:35;10.80;99.90
7472;DHT22;3777;48.722;8.110;2022-11-04T03:33:07;10.90;99.90
7472;DHT22;3777;48.722;8.110;2022-11-04T03:35:39;11.00;99.90
7472;DHT22;3777;48.722;8.110;2022-11-04T03:38:06;10.90;99.90
7472;DHT22;3777;48.722;8.110;2022-11-04T03:40:34;10.90;99.90
7472;DHT22;3777;48.722;8.110;2022-11-04T03:43:06;10.80;99.90
7472;DHT22;3777;48.722;8.110;2022-11-04T03:45:36;10.80;99.90
7472;DHT22;3777;48.722;8.110;2022-11-04T03:48:03;10.70;99.90
7472;DHT22;3777;48.722;8.110;2022-11-04T03:50:32;10.60;99.90
7472;DHT22;3777;48.722;8.110;2022-11-04T03:53:00;10.70;99.90
7472;DHT22;3777;48.722;8.110;2022-11-04T03:55:34;10.80;99.90
7472;DHT22;3777;48.722;8.110;2022-11-04T03:58:08;10.80;99.90
7472;DHT22;3777;48.722;8.110;2022-11-04T04:00:40;10.80;99.90
7472;DHT22;3777;48.722;8.110;2022-11-04T04:03:14;10.80;99.90
7472;DHT22;3777;48.722;8.110;2022-11-04T04:05:50;10.90;99.90
7472;DHT22;3777;48.722;8.110;2022-11-04T04:08:26;10.90;99.90
7472;DHT22;3777;48.722;8.110;2022-11-04T04:11:02;11.00;99.90
7472;DHT22;3777;48.722;8.110;2022-11-04T04:13:36;11.10;99.90
7472;DHT22;3777;48.722;8.110;2022-11-04T04:16:09;11.00;99.90
7472;DHT22;3777;48.722;8.110;2022-11-04T04:18:40;11.00;99.90
7472;DHT22;3777;48.722;8.110;2022-11-04T04:21:11;11.10;99.90
7472;DHT22;3777;48.722;8.110;2022-11-04T04:23:41;11.10;99.90
7472;DHT22;3777;48.722;8.110;2022-11-04T04:26:26;11.10;99.90
7472;DHT22;3777;48.722;8.110;2022-11-04T04:29:13;11.20;99.90
7472;DHT22;3777;48.722;8.110;2022-11-04T04:31:41;11.20;99.90
7472;DHT22;3777;48.722;8.110;2022-11-04T04:34:23;11.10;99.90
7472;DHT22;3777;48.722;8.110;2022-11-04T04:36:55;11.10;99.90
7472;DHT22;3777;48.722;8.110;2022-11-04T04:39:27;11.10;99.90
7472;DHT22;3777;48.722;8.110;2022-11-04T04:42:12;11.10;99.90
7472;DHT22;3777;48.722;8.110;2022-11-04T04:44:56;11.10;99.90
7472;DHT22;3777;48.722;8.110;2022-11-04T04:47:37;11.10;99.90
7472;DHT22;3777;48.722;8.110;2022-11-04T04:50:05;11.10;99.90
7472;DHT22;3777;48.722;8.110;2022-11-04T04:52:35;11.10;99.90
7472;DHT22;3777;48.722;8.110;2022-11-04T04:55:04;11.00;99.90
7472;DHT22;3777;48.722;8.110;2022-11-04T04:57:31;11.00;99.90
7472;DHT22;3777;48.722;8.110;2022-11-04T04:59:57;11.00;99.90
7472;DHT22;3777;48.722;8.110;2022-11-04T05:02:24;11.00;99.90
7472;DHT22;3777;48.722;8.110;2022-11-04T05:04:53;11.00;99.90
7472;DHT22;3777;48.722;8.110;2022-11-04T05:07:21;11.00;99.90
7472;DHT22;3777;48.722;8.110;2022-11-04T05:09:48;11.00;99.90
7472;DHT22;3777;48.722;8.110;2022-11-04T05:12:15;11.00;99.90
7472;DHT22;3777;48.722;8.110;2022-11-04T05:14:42;11.00;99.90
7472;DHT22;3777;48.722;8.110;2022-11-04T05:17:09;11.00;99.90
7472;DHT22;3777;48.722;8.110;2022-11-04T05:19:36;11.00;99.90
7472;DHT22;3777;48.722;8.110;2022-11-04T05:22:04;11.00;99.90
7472;DHT22;3777;48.722;8.110;2022-11-04T05:24:31;11.00;99.90
7472;DHT22;3777;48.722;8.110;2022-11-04T05:26:58;11.00;99.90
7472;DHT22;3777;48.722;8.110;2022-11-04T05:29:25;11.00;99.90
7472;DHT22;3777;48.722;8.110;2022-11-04T05:31:52;11.00;99.90
7472;DHT22;3777;48.722;8.110;2022-11-04T05:34:19;10.90;99.90
7472;DHT22;3777;48.722;8.110;2022-11-04T05:36:46;10.90;99.90
7472;DHT22;3777;48.722;8.110;2022-11-04T05:39:14;10.90;99.90
7472;DHT22;3777;48.722;8.110;2022-11-04T05:41:41;10.90;99.90
7472;DHT22;3777;48.722;8.110;2022-11-04T05:44:09;10.90;99.90
7472;DHT22;3777;48.722;8.110;2022-11-04T05:46:37;10.80;99.90
7472;DHT22;3777;48.722;8.110;2022-11-04T05:49:04;10.80;99.90
7472;DHT22;3777;48.722;8.110;2022-11-04T05:51:31;10.80;99.90
7472;DHT22;3777;48.722;8.110;2022-11-04T05:53:58;10.80;99.90
7472;DHT22;3777;48.722;8.110;2022-11-04T05:56:27;10.80;99.90
7472;DHT22;3777;48.722;8.110;2022-11-04T05:58:54;10.80;99.90
7472;DHT22;3777;48.722;8.110;2022-11-04T06:01:30;10.70;99.90
7472;DHT22;3777;48.722;8.110;2022-11-04T06:03:58;10.70;99.90
7472;DHT22;3777;48.722;8.110;2022-11-04T06:06:27;10.70;99.90
7472;DHT22;3777;48.722;8.110;2022-11-04T06:08:55;10.70;99.90
7472;DHT22;3777;48.722;8.110;2022-11-04T06:11:23;10.70;99.90
7472;DHT22;3777;48.722;8.110;2022-11-04T06:13:52;10.80;99.90
7472;DHT22;3777;48.722;8.110;2022-11-04T06:16:20;10.80;99.90
7472;DHT22;3777;48.722;8.110;2022-11-04T06:18:47;10.80;99.90
7472;DHT22;3777;48.722;8.110;2022-11-04T06:21:23;10.80;99.90
7472;DHT22;3777;48.722;8.110;2022-11-04T06:23:51;10.80;99.90
7472;DHT22;3777;48.722;8.110;2022-11-04T06:26:19;10.80;99.90
7472;DHT22;3777;48.722;8.110;2022-11-04T06:28:46;10.80;99.90
7472;DHT22;3777;48.722;8.110;2022-11-04T06:31:15;10.80;99.90
7472;DHT22;3777;48.722;8.110;2022-11-04T06:33:43;10.80;99.90
7472;DHT22;3777;48.722;8.110;2022-11-04T06:36:12;10.80;99.90
7472;DHT22;3777;48.722;8.110;2022-11-04T06:38:39;10.80;99.90
7472;DHT22;3777;48.722;8.110;2022-11-04T06:41:08;10.90;99.90
7472;DHT22;3777;48.722;8.110;2022-11-04T06:43:36;10.90;99.90
7472;DHT22;3777;48.722;8.110;2022-11-04T06:46:03;10.90;99.90
7472;DHT22;3777;48.722;8.110;2022-11-04T06:48:32;10.90;99.90
7472;DHT22;3777;48.722;8.110;2022-11-04T06:50:59;10.90;99.90
7472;DHT22;3777;48.722;8.110;2022-11-04T06:53:27;10.90;99.90
7472;DHT22;3777;48.722;8.110;2022-11-04T06:56:01;10.90;99.90
7472;DHT22;3777;48.722;8.110;2022-11-04T06:58:28;10.90;99.90
7472;DHT22;3777;48.722;8.110;2022-11-04T07:00:55;11.00;99.90
7472;DHT22;3777;48.722;8.110;2022-11-04T07:03:22;11.00;99.90
7472;DHT22;3777;48.722;8.110;2022-11-04T07:05:50;11.10;99.90
7472;DHT22;3777;48.722;8.110;2022-11-04T07:08:18;11.20;99.90
7472;DHT22;3777;48.722;8.110;2022-11-04T07:10:45;11.20;99.90
7472;DHT22;3777;48.722;8.110;2022-11-04T07:13:12;11.20;99.90
7472;DHT22;3777;48.722;8.110;2022-11-04T07:15:39;11.30;99.90
7472;DHT22;3777;48.722;8.110;2022-11-04T07:18:06;11.30;99.90
7472;DHT22;3777;48.722;8.110;2022-11-04T07:20:33;11.30;99.90
7472;DHT22;3777;48.722;8.110;2022-11-04T07:23:01;11.30;99.90
7472;DHT22;3777;48.722;8.110;2022-11-04T07:25:28;11.30;99.90
7472;DHT22;3777;48.722;8.110;2022-11-04T07:27:55;11.40;99.90
7472;DHT22;3777;48.722;8.110;2022-11-04T07:30:22;11.50;99.90
7472;DHT22;3777;48.722;8.110;2022-11-04T07:32:49;11.40;99.90
7472;DHT22;3777;48.722;8.110;2022-11-04T07:35:16;11.40;99.90
7472;DHT22;3777;48.722;8.110;2022-11-04T07:37:43;11.40;99.90
7472;DHT22;3777;48.722;8.110;2022-11-04T07:40:12;11.30;99.90
7472;DHT22;3777;48.722;8.110;2022-11-04T07:42:38;11.30;99.90
7472;DHT22;3777;48.722;8.110;2022-11-04T07:45:06;11.30;99.90
7472;DHT22;3777;48.722;8.110;2022-11-04T07:47:33;11.40;99.90
7472;DHT22;3777;48.722;8.110;2022-11-04T07:50:00;11.50;99.90
7472;DHT22;3777;48.722;8.110;2022-11-04T07:52:27;11.60;99.90
7472;DHT22;3777;48.722;8.110;2022-11-04T07:54:54;11.70;99.90
7472;DHT22;3777;48.722;8.110;2022-11-04T07:57:22;12.00;99.90
7472;DHT22;3777;48.722;8.110;2022-11-04T07:59:49;12.00;99.90
7472;DHT22;3777;48.722;8.110;2022-11-04T08:02:16;12.10;99.90
7472;DHT22;3777;48.722;8.110;2022-11-04T08:04:43;12.10;99.90
7472;DHT22;3777;48.722;8.110;2022-11-04T08:07:10;12.10;99.90
7472;DHT22;3777;48.722;8.110;2022-11-04T08:09:37;12.10;99.90
7472;DHT22;3777;48.722;8.110;2022-11-04T08:12:04;12.30;99.90
7472;DHT22;3777;48.722;8.110;2022-11-04T08:14:33;12.40;99.90
7472;DHT22;3777;48.722;8.110;2022-11-04T08:17:00;12.50;99.90
7472;DHT22;3777;48.722;8.110;2022-11-04T08:19:27;12.50;99.90
7472;DHT22;3777;48.722;8.110;2022-11-04T08:21:57;12.70;99.90
7472;DHT22;3777;48.722;8.110;2022-11-04T08:24:24;12.90;99.90
7472;DHT22;3777;48.722;8.110;2022-11-04T08:26:50;13.10;99.90
7472;DHT22;3777;48.722;8.110;2022-11-04T08:29:17;13.20;99.90
7472;DHT22;3777;48.722;8.110;2022-11-04T08:31:46;13.30;99.90
7472;DHT22;3777;48.722;8.110;2022-11-04T08:34:13;13.30;99.90
7472;DHT22;3777;48.722;8.110;2022-11-04T08:36:43;13.30;99.90
7472;DHT22;3777;48.722;8.110;2022-11-04T08:39:11;13.20;99.90
7472;DHT22;3777;48.722;8.110;2022-11-04T08:41:40;13.20;99.90
7472;DHT22;3777;48.722;8.110;2022-11-04T08:44:08;13.20;99.90
7472;DHT22;3777;48.722;8.110;2022-11-04T08:46:37;13.30;99.90
7472;DHT22;3777;48.722;8.110;2022-11-04T08:49:06;13.60;99.90
7472;DHT22;3777;48.722;8.110;2022-11-04T08:51:34;13.80;99.90
7472;DHT22;3777;48.722;8.110;2022-11-04T08:54:03;13.90;99.90
7472;DHT22;3777;48.722;8.110;2022-11-04T08:56:32;14.10;99.90
7472;DHT22;3777;48.722;8.110;2022-11-04T08:59:01;14.30;99.90
7472;DHT22;3777;48.722;8.110;2022-11-04T09:01:30;14.20;99.90
7472;DHT22;3777;48.722;8.110;2022-11-04T09:03:57;14.10;99.90
7472;DHT22;3777;48.722;8.110;2022-11-04T09:06:28;14.00;99.90
7472;DHT22;3777;48.722;8.110;2022-11-04T09:08:56;13.90;99.90
7472;DHT22;3777;48.722;8.110;2022-11-04T09:11:28;14.00;99.90
7472;DHT22;3777;48.722;8.110;2022-11-04T09:13:58;14.20;99.90
7472;DHT22;3777;48.722;8.110;2022-11-04T09:16:26;14.20;99.90
7472;DHT22;3777;48.722;8.110;2022-11-04T09:18:54;14.10;99.90
7472;DHT22;3777;48.722;8.110;2022-11-04T09:21:21;14.10;99.90
7472;DHT22;3777;48.722;8.110;2022-11-04T09:23:49;14.40;99.90
7472;DHT22;3777;48.722;8.110;2022-11-04T09:26:17;14.40;99.90
7472;DHT22;3777;48.722;8.110;2022-11-04T09:28:44;14.50;99.90
7472;DHT22;3777;48.722;8.110;2022-11-04T09:31:13;14.80;99.90
7472;DHT22;3777;48.722;8.110;2022-11-04T09:33:41;15.20;99.90
7472;DHT22;3777;48.722;8.110;2022-11-04T09:36:09;15.40;99.90
7472;DHT22;3777;48.722;8.110;2022-11-04T09:38:37;15.30;99.90
7472;DHT22;3777;48.722;8.110;2022-11-04T09:41:23;15.50;99.90
7472;DHT22;3777;48.722;8.110;2022-11-04T09:43:55;15.70;99.90
7472;DHT22;3777;48.722;8.110;2022-11-04T09:46:30;16.00;99.90
7472;DHT22;3777;48.722;8.110;2022-11-04T09:49:01;15.90;99.90
7472;DHT22;3777;48.722;8.110;2022-11-04T09:51:29;15.90;99.90
7472;DHT22;3777;48.722;8.110;2022-11-04T09:53:59;16.20;99.90
7472;DHT22;3777;48.722;8.110;2022-11-04T09:56:32;16.30;99.90
7472;DHT22;3777;48.722;8.110;2022-11-04T09:59:01;16.50;99.90
7472;DHT22;3777;48.722;8.110;2022-11-04T10:01:32;16.60;99.90
7472;DHT22;3777;48.722;8.110;2022-11-04T10:04:15;16.60;99.90
7472;DHT22;3777;48.722;8.110;2022-11-04T10:06:59;16.50;99.90
7472;DHT22;3777;48.722;8.110;2022-11-04T10:09:39;16.40;99.90
7472;DHT22;3777;48.722;8.110;2022-11-04T10:12:18;16.30;99.90
7472;DHT22;3777;48.722;8.110;2022-11-04T10:15:14;16.10;99.90
7472;DHT22;3777;48.722;8.110;2022-11-04T10:18:00;15.80;99.90
7472;DHT22;3777;48.722;8.110;2022-11-04T10:20:42;15.60;99.90
7472;DHT22;3777;48.722;8.110;2022-11-04T10:23:20;15.50;99.90
7472;DHT22;3777;48.722;8.110;2022-11-04T10:25:54;15.40;99.90
7472;DHT22;3777;48.722;8.110;2022-11-04T10:28:29;15.30;99.90
7472;DHT22;3777;48.722;8.110;2022-11-04T10:31:00;15.20;99.90
7472;DHT22;3777;48.722;8.110;2022-11-04T10:33:32;15.30;99.90
7472;DHT22;3777;48.722;8.110;2022-11-04T10:36:02;15.80;99.90
7472;DHT22;3777;48.722;8.110;2022-11-04T10:38:35;16.00;99.90
7472;DHT22;3777;48.722;8.110;2022-11-04T10:41:15;16.10;99.90
7472;DHT22;3777;48.722;8.110;2022-11-04T10:43:45;16.30;99.90
7472;DHT22;3777;48.722;8.110;2022-11-04T10:46:21;16.40;99.90
7472;DHT22;3777;48.722;8.110;2022-11-04T10:48:58;16.40;99.90
7472;DHT22;3777;48.722;8.110;2022-11-04T10:51:26;16.50;99.90
7472;DHT22;3777;48.722;8.110;2022-11-04T10:53:54;16.60;99.90
7472;DHT22;3777;48.722;8.110;2022-11-04T10:56:31;16.80;99.90
7472;DHT22;3777;48.722;8.110;2022-11-04T10:59:14;16.90;99.90
7472;DHT22;3777;48.722;8.110;2022-11-04T11:01:48;17.00;99.90
7472;DHT22;3777;48.722;8.110;2022-11-04T11:04:24;17.00;99.90
7472;DHT22;3777;48.722;8.110;2022-11-04T11:06:53;17.10;99.90
7472;DHT22;3777;48.722;8.110;2022-11-04T11:09:22;17.00;99.90
7472;DHT22;3777;48.722;8.110;2022-11-04T11:11:54;17.00;99.90
7472;DHT22;3777;48.722;8.110;2022-11-04T11:14:33;17.00;99.90
7472;DHT22;3777;48.722;8.110;2022-11-04T11:17:18;16.90;99.90
7472;DHT22;3777;48.722;8.110;2022-11-04T11:19:48;16.60;99.90
7472;DHT22;3777;48.722;8.110;2022-11-04T11:22:33;16.40;99.90
7472;DHT22;3777;48.722;8.110;2022-11-04T11:25:22;16.20;99.90
7472;DHT22;3777;48.722;8.110;2022-11-04T11:27:51;16.10;99.90
7472;DHT22;3777;48.722;8.110;2022-11-04T11:30:24;16.20;99.90
7472;DHT22;3777;48.722;8.110;2022-11-04T11:32:53;16.10;99.90
7472;DHT22;3777;48.722;8.110;2022-11-04T11:35:25;16.00;99.90
7472;DHT22;3777;48.722;8.110;2022-11-04T11:37:53;16.20;99.90
7472;DHT22;3777;48.722;8.110;2022-11-04T11:40:25;16.20;99.90
7472;DHT22;3777;48.722;8.110;2022-11-04T11:42:53;16.30;99.90
7472;DHT22;3777;48.722;8.110;2022-11-04T11:45:22;16.20;99.90
7472;DHT22;3777;48.722;8.110;2022-11-04T11:47:50;16.20;99.90
7472;DHT22;3777;48.722;8.110;2022-11-04T11:50:21;16.10;99.90
7472;DHT22;3777;48.722;8.110;2022-11-04T11:52:51;16.10;99.90
7472;DHT22;3777;48.722;8.110;2022-11-04T11:55:21;16.20;99.90
7472;DHT22;3777;48.722;8.110;2022-11-04T11:58:00;16.40;99.90
7472;DHT22;3777;48.722;8.110;2022-11-04T12:00:34;16.50;99.90
7472;DHT22;3777;48.722;8.110;2022-11-04T12:03:11;16.60;99.90
7472;DHT22;3777;48.722;8.110;2022-11-04T12:05:46;16.70;99.90
7472;DHT22;3777;48.722;8.110;2022-11-04T12:08:40;16.90;99.90
7472;DHT22;3777;48.722;8.110;2022-11-04T12:11:15;17.00;99.90
7472;DHT22;3777;48.722;8.110;2022-11-04T12:13:51;17.10;99.90
7472;DHT22;3777;48.722;8.110;2022-11-04T12:16:28;17.00;99.90
7472;DHT22;3777;48.722;8.110;2022-11-04T12:19:17;17.10;99.90
7472;DHT22;3777;48.722;8.110;2022-11-04T12:21:55;17.10;99.90
7472;DHT22;3777;48.722;8.110;2022-11-04T12:24:30;16.50;99.90
7472;DHT22;3777;48.722;8.110;2022-11-04T12:27:04;16.20;99.90
7472;DHT22;3777;48.722;8.110;2022-11-04T12:29:47;15.70;99.90
7472;DHT22;3777;48.722;8.110;2022-11-04T12:32:25;15.30;99.90
7472;DHT22;3777;48.722;8.110;2022-11-04T12:35:03;15.00;99.90
7472;DHT22;3777;48.722;8.110;2022-11-04T12:37:40;14.90;99.90
7472;DHT22;3777;48.722;8.110;2022-11-04T12:40:13;14.80;99.90
7472;DHT22;3777;48.722;8.110;2022-11-04T12:42:59;14.80;99.90
7472;DHT22;3777;48.722;8.110;2022-11-04T12:45:33;14.80;99.90
7472;DHT22;3777;48.722;8.110;2022-11-04T12:48:08;14.70;99.90
7472;DHT22;3777;48.722;8.110;2022-11-04T12:50:54;14.50;99.90
7472;DHT22;3777;48.722;8.110;2022-11-04T12:53:43;14.40;99.90
7472;DHT22;3777;48.722;8.110;2022-11-04T12:56:16;14.40;99.90
7472;DHT22;3777;48.722;8.110;2022-11-04T12:59:18;14.60;99.90
7472;DHT22;3777;48.722;8.110;2022-11-04T13:01:48;14.60;99.90
7472;DHT22;3777;48.722;8.110;2022-11-04T13:04:20;14.60;99.90
7472;DHT22;3777;48.722;8.110;2022-11-04T13:06:51;14.60;99.90
7472;DHT22;3777;48.722;8.110;2022-11-04T13:09:28;14.60;99.90
7472;DHT22;3777;48.722;8.110;2022-11-04T13:12:00;14.60;99.90
7472;DHT22;3777;48.722;8.110;2022-11-04T13:14:32;14.70;99.90
7472;DHT22;3777;48.722;8.110;2022-11-04T13:17:04;14.70;99.90
7472;DHT22;3777;48.722;8.110;2022-11-04T13:19:38;14.80;99.90
7472;DHT22;3777;48.722;8.110;2022-11-04T13:22:11;14.70;99.90
7472;DHT22;3777;48.722;8.110;2022-11-04T13:24:45;14.70;99.90
7472;DHT22;3777;48.722;8.110;2022-11-04T13:27:17;14.70;99.90
7472;DHT22;3777;48.722;8.110;2022-11-04T13:29:45;14.80;99.90
7472;DHT22;3777;48.722;8.110;2022-11-04T13:32:19;14.90;99.90
7472;DHT22;3777;48.722;8.110;2022-11-04T13:34:56;15.10;99.90
7472;DHT22;3777;48.722;8.110;2022-11-04T13:37:27;15.10;99.90
7472;DHT22;3777;48.722;8.110;2022-11-04T13:39:57;14.90;99.90
7472;DHT22;3777;48.722;8.110;2022-11-04T13:42:46;14.80;99.90
7472;DHT22;3777;48.722;8.110;2022-11-04T13:45:19;14.60;99.90
7472;DHT22;3777;48.722;8.110;2022-11-04T13:47:48;14.60;99.90
7472;DHT22;3777;48.722;8.110;2022-11-04T13:50:33;14.60;99.90
7472;DHT22;3777;48.722;8.110;2022-11-04T13:53:02;14.50;99.90
7472;DHT22;3777;48.722;8.110;2022-11-04T13:55:29;14.50;99.90
7472;DHT22;3777;48.722;8.110;2022-11-04T13:57:58;14.50;99.90
7472;DHT22;3777;48.722;8.110;2022-11-04T14:00:26;14.50;99.90
7472;DHT22;3777;48.722;8.110;2022-11-04T14:02:54;14.50;99.90
7472;DHT22;3777;48.722;8.110;2022-11-04T14:06:04;14.60;99.90
7472;DHT22;3777;48.722;8.110;2022-11-04T14:08:32;14.50;99.90
7472;DHT22;3777;48.722;8.110;2022-11-04T14:11:08;14.70;99.90
7472;DHT22;3777;48.722;8.110;2022-11-04T14:14:03;14.80;99.90
7472;DHT22;3777;48.722;8.110;2022-11-04T14:16:41;14.70;99.90
7472;DHT22;3777;48.722;8.110;2022-11-04T14:22:34;14.50;99.90
7472;DHT22;3777;48.722;8.110;2022-11-04T14:25:18;14.40;99.90
7472;DHT22;3777;48.722;8.110;2022-11-04T14:27:47;14.70;99.90
7472;DHT22;3777;48.722;8.110;2022-11-04T14:30:43;14.80;99.90
7472;DHT22;3777;48.722;8.110;2022-11-04T14:33:21;15.00;99.90
7472;DHT22;3777;48.722;8.110;2022-11-04T14:35:49;15.20;99.90
7472;DHT22;3777;48.722;8.110;2022-11-04T14:38:24;15.30;99.90
7472;DHT22;3777;48.722;8.110;2022-11-04T14:41:13;15.40;99.90
7472;DHT22;3777;48.722;8.110;2022-11-04T14:43:42;15.40;99.90
7472;DHT22;3777;48.722;8.110;2022-11-04T14:46:11;15.40;99.90
7472;DHT22;3777;48.722;8.110;2022-11-04T14:48:46;15.40;99.90
7472;DHT22;3777;48.722;8.110;2022-11-04T14:51:24;15.40;99.90
7472;DHT22;3777;48.722;8.110;2022-11-04T14:54:01;15.30;99.90
7472;DHT22;3777;48.722;8.110;2022-11-04T14:56:29;15.30;99.90
7472;DHT22;3777;48.722;8.110;2022-11-04T14:58:58;15.10;99.90
7472;DHT22;3777;48.722;8.110;2022-11-04T15:01:27;15.00;99.90
7472;DHT22;3777;48.722;8.110;2022-11-04T15:03:56;14.90;99.90
7472;DHT22;3777;48.722;8.110;2022-11-04T15:06:26;14.80;99.90
7472;DHT22;3777;48.722;8.110;2022-11-04T15:08:55;14.70;99.90
7472;DHT22;3777;48.722;8.110;2022-11-04T15:11:25;14.60;99.90
7472;DHT22;3777;48.722;8.110;2022-11-04T15:14:14;14.50;99.90
7472;DHT22;3777;48.722;8.110;2022-11-04T15:16:44;14.40;99.90
7472;DHT22;3777;48.722;8.110;2022-11-04T15:19:19;14.40;99.90
7472;DHT22;3777;48.722;8.110;2022-11-04T15:21:48;14.30;99.90
7472;DHT22;3777;48.722;8.110;2022-11-04T15:24:16;14.20;99.90
7472;DHT22;3777;48.722;8.110;2022-11-04T15:26:48;14.20;99.90
7472;DHT22;3777;48.722;8.110;2022-11-04T15:29:17;14.10;99.90
7472;DHT22;3777;48.722;8.110;2022-11-04T15:31:53;14.10;99.90
7472;DHT22;3777;48.722;8.110;2022-11-04T15:34:20;14.00;99.90
7472;DHT22;3777;48.722;8.110;2022-11-04T15:36:48;13.90;99.90
7472;DHT22;3777;48.722;8.110;2022-11-04T15:39:20;13.90;99.90
7472;DHT22;3777;48.722;8.110;2022-11-04T15:41:50;13.80;99.90
7472;DHT22;3777;48.722;8.110;2022-11-04T15:44:36;13.70;99.90
7472;DHT22;3777;48.722;8.110;2022-11-04T15:47:20;13.70;99.90
7472;DHT22;3777;48.722;8.110;2022-11-04T15:49:49;13.60;99.90
7472;DHT22;3777;48.722;8.110;2022-11-04T15:52:20;13.60;99.90
7472;DHT22;3777;48.722;8.110;2022-11-04T15:54:49;13.50;99.90
7472;DHT22;3777;48.722;8.110;2022-11-04T15:57:18;13.40;99.90
7472;DHT22;3777;48.722;8.110;2022-11-04T15:59:49;13.40;99.90
7472;DHT22;3777;48.722;8.110;2022-11-04T16:02:24;13.40;99.90
7472;DHT22;3777;48.722;8.110;2022-11-04T16:05:03;13.30;99.90
7472;DHT22;3777;48.722;8.110;2022-11-04T16:07:34;13.30;99.90
7472;DHT22;3777;48.722;8.110;2022-11-04T16:10:22;13.30;99.90
7472;DHT22;3777;48.722;8.110;2022-11-04T16:12:52;13.30;99.90
7472;DHT22;3777;48.722;8.110;2022-11-04T16:15:33;13.30;99.90
7472;DHT22;3777;48.722;8.110;2022-11-04T16:18:02;13.30;99.90
7472;DHT22;3777;48.722;8.110;2022-11-04T16:20:30;13.30;99.90
7472;DHT22;3777;48.722;8.110;2022-11-04T16:22:59;13.20;99.90
7472;DHT22;3777;48.722;8.110;2022-11-04T16:25:33;13.20;99.90
7472;DHT22;3777;48.722;8.110;2022-11-04T16:28:00;13.20;99.90
7472;DHT22;3777;48.722;8.110;2022-11-04T16:30:28;13.10;99.90
7472;DHT22;3777;48.722;8.110;2022-11-04T16:33:07;13.10;99.90
7472;DHT22;3777;48.722;8.110;2022-11-04T16:35:36;13.00;99.90
7472;DHT22;3777;48.722;8.110;2022-11-04T16:38:07;13.00;99.90